createdAt,value
2023-03-28T00:01:13.808Z,-0.06
2023-03-28T00:03:40.964Z,0.06
2023-03-28T00:06:12.597Z,0.19
2023-03-28T00:08:40.351Z,0.31
2023-03-28T00:11:15.514Z,0.38
2023-03-28T00:13:42.120Z,0.25
2023-03-28T00:16:12.944Z,0.19
2023-03-28T00:18:41.373Z,0.00
2023-03-28T00:21:24.014Z,-0.06
2023-03-28T00:23:52.599Z,-0.13
2023-03-28T00:26:22.158Z,-0.19
2023-03-28T00:28:48.767Z,-0.19
2023-03-28T00:31:15.749Z,-0.19
2023-03-28T00:33:42.321Z,-0.19
2023-03-28T00:36:10.382Z,0.06
2023-03-28T00:38:38.601Z,0.13
2023-03-28T00:41:05.847Z,0.13
2023-03-28T00:43:40.887Z,0.00
2023-03-28T00:46:30.411Z,-0.13
2023-03-28T00:49:01.272Z,0.00
2023-03-28T00:51:34.070Z,-0.06
2023-03-28T00:54:03.503Z,-0.06
2023-03-28T00:56:34.133Z,-0.31
2023-03-28T00:59:07.992Z,-0.44
2023-03-28T01:01:35.716Z,-0.44
2023-03-28T01:04:03.226Z,-0.44
2023-03-28T01:06:46.397Z,-0.44
2023-03-28T01:09:16.635Z,-0.50
2023-03-28T01:11:46.130Z,-0.69
2023-03-28T01:14:17.822Z,-0.81
2023-03-28T01:16:47.650Z,-0.94
2023-03-28T01:19:32.514Z,-1.00
2023-03-28T01:22:18.040Z,-1.06
2023-03-28T01:25:08.418Z,-1.13
2023-03-28T01:28:02.286Z,-1.13
2023-03-28T01:30:58.362Z,-1.31
2023-03-28T01:33:46.545Z,-1.38
2023-03-28T01:36:51.518Z,-1.38
2023-03-28T01:39:39.730Z,-1.44
2023-03-28T01:42:43.997Z,-1.31
2023-03-28T01:45:19.198Z,-1.25
2023-03-28T01:48:12.440Z,-1.25
2023-03-28T01:50:49.653Z,-1.13
2023-03-28T01:53:21.957Z,-1.13
2023-03-28T01:56:04.542Z,-1.19
2023-03-28T01:58:51.451Z,-1.25
2023-03-28T02:01:45.246Z,-1.25
2023-03-28T02:04:21.471Z,-1.25
2023-03-28T02:06:51.509Z,-1.31
2023-03-28T02:09:24.608Z,-1.31
2023-03-28T02:11:57.881Z,-1.44
2023-03-28T02:14:29.468Z,-1.44
2023-03-28T02:17:01.918Z,-1.38
2023-03-28T02:19:31.133Z,-1.44
2023-03-28T02:22:04.713Z,-1.44
2023-03-28T02:24:31.598Z,-1.50
2023-03-28T02:26:58.289Z,-1.44
2023-03-28T02:29:25.093Z,-1.50
2023-03-28T02:31:51.803Z,-1.50
2023-03-28T02:34:18.400Z,-1.56
2023-03-28T02:37:02.333Z,-1.50
2023-03-28T02:39:41.919Z,-1.75
2023-03-28T02:42:26.975Z,-1.69
2023-03-28T02:45:17.226Z,-1.63
2023-03-28T02:48:05.158Z,-1.63
2023-03-28T02:50:42.298Z,-1.69
2023-03-28T02:53:47.469Z,-1.69
2023-03-28T02:56:26.251Z,-1.75
2023-03-28T02:59:03.893Z,-1.81
2023-03-28T03:01:31.067Z,-1.81
2023-03-28T03:03:58.562Z,-1.75
2023-03-28T03:06:25.371Z,-1.81
2023-03-28T03:08:51.994Z,-1.81
2023-03-28T03:11:18.618Z,-1.81
2023-03-28T03:13:45.320Z,-1.75
2023-03-28T03:16:11.952Z,-1.81
2023-03-28T03:18:38.657Z,-1.75
2023-03-28T03:21:05.451Z,-1.56
2023-03-28T03:23:32.028Z,-1.56
2023-03-28T03:25:58.750Z,-1.56
2023-03-28T03:28:25.457Z,-1.44
2023-03-28T03:30:53.026Z,-1.44
2023-03-28T03:33:19.636Z,-1.44
2023-03-28T03:35:46.439Z,-1.50
2023-03-28T03:38:13.531Z,-1.44
2023-03-28T03:40:40.783Z,-1.50
2023-03-28T03:43:07.425Z,-1.56
2023-03-28T03:45:34.264Z,-1.56
2023-03-28T03:48:00.961Z,-1.63
2023-03-28T03:50:27.619Z,-1.50
2023-03-28T03:52:54.196Z,-1.50
2023-03-28T03:55:20.848Z,-1.44
2023-03-28T03:57:47.526Z,-1.44
2023-03-28T04:00:14.794Z,-1.44
2023-03-28T04:02:41.541Z,-1.50
2023-03-28T04:05:08.765Z,-1.44
2023-03-28T04:07:36.640Z,-1.69
2023-03-28T04:10:04.307Z,-1.69
2023-03-28T04:12:31.104Z,-1.75
2023-03-28T04:14:57.722Z,-1.88
2023-03-28T04:17:30.000Z,-1.75
2023-03-28T04:19:56.954Z,-1.88
2023-03-28T04:22:29.632Z,-1.81
2023-03-28T04:24:59.144Z,-1.75
2023-03-28T04:27:29.708Z,-1.81
2023-03-28T04:29:56.277Z,-1.94
2023-03-28T04:32:24.687Z,-1.94
2023-03-28T04:34:51.300Z,-1.88
2023-03-28T04:37:19.538Z,-1.88
2023-03-28T04:39:48.935Z,-1.94
2023-03-28T04:42:16.661Z,-1.94
2023-03-28T04:44:43.309Z,-1.88
2023-03-28T04:47:11.718Z,-1.88
2023-03-28T04:49:38.954Z,-1.81
2023-03-28T04:52:06.628Z,-1.81
2023-03-28T04:54:33.514Z,-1.81
2023-03-28T04:57:00.349Z,-1.88
2023-03-28T04:59:26.927Z,-1.94
2023-03-28T05:01:53.643Z,-1.94
2023-03-28T05:04:22.239Z,-2.00
2023-03-28T05:06:50.216Z,-1.94
2023-03-28T05:09:17.635Z,-1.94
2023-03-28T05:11:45.250Z,-1.81
2023-03-28T05:14:12.166Z,-1.88
2023-03-28T05:16:38.878Z,-1.94
2023-03-28T05:19:06.385Z,-1.94
2023-03-28T05:21:33.152Z,-1.94
2023-03-28T05:23:59.717Z,-2.06
2023-03-28T05:26:28.086Z,-2.06
2023-03-28T05:28:54.708Z,-2.00
2023-03-28T05:31:21.359Z,-1.94
2023-03-28T05:33:47.947Z,-1.94
2023-03-28T05:36:15.006Z,-1.88
2023-03-28T05:38:42.156Z,-1.88
2023-03-28T05:41:08.715Z,-1.88
2023-03-28T05:43:35.316Z,-1.88
2023-03-28T05:46:01.941Z,-1.81
2023-03-28T05:48:28.536Z,-1.81
2023-03-28T05:50:55.323Z,-1.81
2023-03-28T05:53:21.917Z,-1.75
2023-03-28T05:55:49.607Z,-1.63
2023-03-28T05:58:16.298Z,-1.63
2023-03-28T06:00:44.729Z,-1.63
2023-03-28T06:03:16.546Z,-1.63
2023-03-28T06:05:45.008Z,-1.56
2023-03-28T06:08:11.774Z,-1.56
2023-03-28T06:10:38.812Z,-1.50
2023-03-28T06:13:05.609Z,-1.38
2023-03-28T06:15:32.899Z,-1.31
2023-03-28T06:17:59.706Z,-1.13
2023-03-28T06:20:26.331Z,-1.00
2023-03-28T06:22:52.912Z,-1.00
2023-03-28T06:25:19.478Z,-1.00
2023-03-28T06:27:46.236Z,-0.88
2023-03-28T06:30:13.595Z,-0.75
2023-03-28T06:32:40.514Z,-0.69
2023-03-28T06:35:07.894Z,-0.56
2023-03-28T06:37:34.570Z,-0.50
2023-03-28T06:40:02.251Z,-0.44
2023-03-28T06:42:28.925Z,-0.31
2023-03-28T06:44:55.644Z,-0.13
2023-03-28T06:47:22.386Z,0.00
2023-03-28T06:49:49.139Z,0.19
2023-03-28T06:52:15.770Z,0.44
2023-03-28T06:54:42.349Z,0.63
2023-03-28T06:57:09.041Z,0.75
2023-03-28T06:59:35.866Z,1.00
2023-03-28T07:02:02.755Z,1.13
2023-03-28T07:04:30.106Z,1.25
2023-03-28T07:06:56.729Z,1.31
2023-03-28T07:09:23.305Z,1.44
2023-03-28T07:11:49.879Z,1.50
2023-03-28T07:14:16.504Z,1.63
2023-03-28T07:16:43.186Z,1.69
2023-03-28T07:19:10.214Z,1.81
2023-03-28T07:21:36.822Z,1.88
2023-03-28T07:24:03.550Z,1.94
2023-03-28T07:26:31.241Z,2.06
2023-03-28T07:28:57.881Z,2.19
2023-03-28T07:31:25.780Z,2.44
2023-03-28T07:33:54.825Z,2.44
2023-03-28T07:36:21.771Z,2.63
2023-03-28T07:38:49.673Z,2.88
2023-03-28T07:41:16.900Z,3.06
2023-03-28T07:43:43.702Z,3.25
2023-03-28T07:46:14.310Z,3.44
2023-03-28T07:48:42.006Z,3.69
2023-03-28T07:51:10.571Z,3.81
2023-03-28T07:53:37.936Z,4.06
2023-03-28T07:56:10.564Z,4.19
2023-03-28T07:58:41.399Z,4.31
2023-03-28T08:01:12.124Z,4.44
2023-03-28T08:03:39.528Z,4.44
2023-03-28T08:06:17.040Z,4.44
2023-03-28T08:08:51.933Z,4.38
2023-03-28T08:11:18.519Z,4.56
2023-03-28T08:13:45.102Z,4.56
2023-03-28T08:16:11.707Z,4.69
2023-03-28T08:18:38.310Z,5.00
2023-03-28T08:21:05.548Z,5.06
2023-03-28T08:23:32.132Z,5.19
2023-03-28T08:26:07.260Z,5.31
2023-03-28T08:28:35.716Z,5.38
2023-03-28T08:31:03.470Z,5.25
2023-03-28T08:33:32.748Z,5.19
2023-03-28T08:35:59.448Z,5.25
2023-03-28T08:38:26.068Z,5.25
2023-03-28T08:41:29.997Z,5.31
2023-03-28T08:43:59.730Z,5.50
2023-03-28T08:46:29.104Z,5.69
2023-03-28T08:48:59.609Z,5.56
2023-03-28T08:51:27.529Z,5.69
2023-03-28T08:54:31.726Z,5.75
2023-03-28T08:57:02.581Z,5.88
2023-03-28T08:59:40.751Z,5.94
2023-03-28T09:02:21.762Z,6.00
2023-03-28T09:04:50.263Z,6.13
2023-03-28T09:07:35.919Z,6.44
2023-03-28T09:10:11.508Z,6.38
2023-03-28T09:13:08.959Z,6.63
2023-03-28T09:16:09.069Z,6.63
2023-03-28T09:18:47.793Z,7.13
2023-03-28T09:21:27.676Z,7.00
2023-03-28T09:24:29.899Z,7.06
2023-03-28T09:26:59.259Z,6.94
2023-03-28T09:29:26.050Z,6.69
2023-03-28T09:32:00.814Z,6.69
2023-03-28T09:34:50.661Z,6.63
2023-03-28T09:37:31.433Z,6.81
2023-03-28T09:40:22.761Z,7.00
2023-03-28T09:43:07.923Z,7.00
2023-03-28T09:45:40.729Z,7.06
2023-03-28T09:48:15.953Z,7.06
2023-03-28T09:50:43.579Z,7.06
2023-03-28T09:53:21.912Z,7.06
2023-03-28T09:55:58.095Z,7.19
2023-03-28T09:58:50.968Z,7.25
2023-03-28T10:01:32.980Z,7.00
2023-03-28T10:04:00.376Z,6.94
2023-03-28T10:06:32.187Z,7.19
2023-03-28T10:09:16.615Z,7.19
2023-03-28T10:11:54.705Z,7.13
2023-03-28T10:14:34.144Z,7.44
2023-03-28T10:17:12.892Z,7.69
2023-03-28T10:19:46.485Z,7.38
2023-03-28T10:22:27.119Z,7.38
2023-03-28T10:24:55.123Z,7.50
2023-03-28T10:27:26.805Z,7.50
2023-03-28T10:29:56.780Z,7.69
2023-03-28T10:32:29.083Z,7.56
2023-03-28T10:35:27.861Z,7.44
2023-03-28T10:37:55.577Z,7.38
2023-03-28T10:40:28.020Z,7.44
2023-03-28T10:42:57.650Z,7.38
2023-03-28T10:45:36.669Z,7.44
2023-03-28T10:48:20.158Z,7.56
2023-03-28T10:50:50.735Z,7.44
2023-03-28T10:53:23.108Z,7.44
2023-03-28T10:56:14.166Z,7.38
2023-03-28T10:59:17.751Z,7.50
2023-03-28T11:01:58.179Z,7.44
2023-03-28T11:04:39.661Z,7.31
2023-03-28T11:07:35.972Z,7.38
2023-03-28T11:10:08.660Z,7.56
2023-03-28T11:13:09.008Z,7.88
2023-03-28T11:15:57.865Z,8.31
2023-03-28T11:18:43.297Z,8.25
2023-03-28T11:21:21.724Z,8.06
2023-03-28T11:24:06.985Z,8.31
2023-03-28T11:27:14.795Z,8.25
2023-03-28T11:29:59.072Z,8.56
2023-03-28T11:32:31.762Z,8.63
2023-03-28T11:35:03.884Z,8.63
2023-03-28T11:37:46.074Z,8.94
2023-03-28T11:40:39.425Z,8.88
2023-03-28T11:43:11.836Z,8.81
2023-03-28T11:45:52.054Z,8.94
2023-03-28T11:48:26.791Z,8.94
2023-03-28T11:51:09.768Z,8.81
2023-03-28T11:53:47.415Z,9.25
2023-03-28T11:56:32.427Z,9.63
2023-03-28T11:59:04.917Z,9.38
2023-03-28T12:01:42.147Z,9.00
2023-03-28T12:04:17.729Z,9.06
2023-03-28T12:07:03.516Z,9.19
2023-03-28T12:09:36.703Z,9.44
2023-03-28T12:12:30.476Z,9.44
2023-03-28T12:15:07.242Z,9.31
2023-03-28T12:17:46.548Z,9.44
2023-03-28T12:20:22.946Z,9.06
2023-03-28T12:23:00.131Z,9.00
2023-03-28T12:25:31.167Z,9.19
2023-03-28T12:28:11.365Z,9.25
2023-03-28T12:31:01.313Z,9.31
2023-03-28T12:34:01.810Z,9.06
2023-03-28T12:36:51.716Z,9.00
2023-03-28T12:39:24.526Z,8.94
2023-03-28T12:41:53.784Z,9.13
2023-03-28T12:44:40.506Z,8.88
2023-03-28T12:47:22.651Z,8.81
2023-03-28T12:50:01.606Z,8.81
2023-03-28T12:52:38.178Z,9.06
2023-03-28T12:55:24.823Z,8.75
2023-03-28T12:57:53.622Z,8.75
2023-03-28T13:00:33.426Z,8.63
2023-03-28T13:03:01.339Z,8.38
2023-03-28T13:05:31.911Z,8.19
2023-03-28T13:08:29.380Z,8.19
2023-03-28T13:11:07.996Z,8.06
2023-03-28T13:14:08.668Z,8.06
2023-03-28T13:17:13.588Z,8.00
2023-03-28T13:19:42.950Z,7.88
2023-03-28T13:22:34.620Z,7.88
2023-03-28T13:25:21.932Z,7.88
2023-03-28T13:28:10.372Z,7.94
2023-03-28T13:30:45.457Z,8.06
2023-03-28T13:33:28.383Z,7.94
2023-03-28T13:35:57.968Z,8.06
2023-03-28T13:38:27.697Z,8.19
2023-03-28T13:41:01.947Z,8.38
2023-03-28T13:43:37.676Z,8.63
2023-03-28T13:46:14.483Z,8.69
2023-03-28T13:48:50.256Z,9.13
2023-03-28T13:51:32.374Z,9.06
2023-03-28T13:53:59.816Z,9.38
2023-03-28T13:56:33.346Z,9.38
2023-03-28T13:59:05.303Z,9.50
2023-03-28T14:01:46.716Z,9.44
2023-03-28T14:04:49.590Z,9.56
2023-03-28T14:07:16.221Z,9.69
2023-03-28T14:09:42.812Z,9.50
2023-03-28T14:12:14.742Z,9.63
2023-03-28T14:14:51.688Z,9.88
2023-03-28T14:17:23.984Z,10.00
2023-03-28T14:19:57.665Z,9.81
2023-03-28T14:22:30.134Z,9.69
2023-03-28T14:25:00.572Z,9.56
2023-03-28T14:27:42.182Z,9.44
2023-03-28T14:30:37.051Z,9.25
2023-03-28T14:33:08.447Z,9.31
2023-03-28T14:35:37.344Z,9.19
2023-03-28T14:38:14.023Z,9.19
2023-03-28T14:40:43.109Z,9.19
2023-03-28T14:43:10.166Z,9.13
2023-03-28T14:45:44.454Z,9.13
2023-03-28T14:48:17.016Z,9.19
2023-03-28T14:50:46.764Z,9.19
2023-03-28T14:53:22.371Z,9.19
2023-03-28T14:55:51.078Z,9.31
2023-03-28T14:58:20.285Z,9.44
2023-03-28T15:00:51.846Z,9.38
2023-03-28T15:03:46.605Z,9.31
2023-03-28T15:06:16.409Z,9.38
2023-03-28T15:08:44.478Z,9.19
2023-03-28T15:11:11.086Z,9.19
2023-03-28T15:13:45.207Z,9.38
2023-03-28T15:16:20.437Z,9.31
2023-03-28T15:18:57.324Z,9.44
2023-03-28T15:21:24.811Z,9.63
2023-03-28T15:23:58.332Z,9.75
2023-03-28T15:26:35.653Z,9.50
2023-03-28T15:29:05.818Z,9.50
2023-03-28T15:31:34.021Z,9.38
2023-03-28T15:34:00.681Z,9.38
2023-03-28T15:36:34.579Z,9.06
2023-03-28T15:39:17.237Z,9.06
2023-03-28T15:41:47.760Z,9.00
2023-03-28T15:44:27.814Z,9.06
2023-03-28T15:47:22.073Z,9.06
2023-03-28T15:49:49.387Z,9.00
2023-03-28T15:52:21.537Z,8.88
2023-03-28T15:54:56.418Z,8.81
2023-03-28T15:57:28.218Z,8.81
2023-03-28T15:59:56.194Z,8.69
2023-03-28T16:02:22.771Z,8.75
2023-03-28T16:05:04.886Z,8.63
2023-03-28T16:07:46.256Z,8.69
2023-03-28T16:10:18.315Z,8.63
2023-03-28T16:12:45.940Z,8.63
2023-03-28T16:15:14.180Z,8.50
2023-03-28T16:17:43.116Z,8.44
2023-03-28T16:20:21.458Z,8.44
2023-03-28T16:22:49.653Z,8.31
2023-03-28T16:25:16.517Z,8.31
2023-03-28T16:27:43.276Z,8.19
2023-03-28T16:30:33.352Z,8.13
2023-03-28T16:33:00.043Z,8.06
2023-03-28T16:35:29.958Z,7.94
2023-03-28T16:37:56.723Z,7.81
2023-03-28T16:40:23.375Z,7.63
2023-03-28T16:42:51.066Z,7.50
2023-03-28T16:45:17.881Z,7.50
2023-03-28T16:47:44.715Z,7.38
2023-03-28T16:50:11.421Z,7.25
2023-03-28T16:52:39.074Z,7.19
2023-03-28T16:55:17.226Z,7.13
2023-03-28T16:57:44.406Z,7.00
2023-03-28T17:00:17.875Z,6.94
2023-03-28T17:02:46.942Z,6.94
2023-03-28T17:05:15.532Z,6.81
2023-03-28T17:07:42.343Z,6.69
2023-03-28T17:10:09.645Z,6.81
2023-03-28T17:12:37.583Z,6.75
2023-03-28T17:15:04.540Z,6.69
2023-03-28T17:17:31.214Z,6.56
2023-03-28T17:19:57.835Z,6.56
2023-03-28T17:22:25.553Z,6.56
2023-03-28T17:24:52.242Z,6.50
2023-03-28T17:27:21.146Z,6.50
2023-03-28T17:29:47.802Z,6.50
2023-03-28T17:32:14.486Z,6.56
2023-03-28T17:34:41.091Z,6.50
2023-03-28T17:37:07.755Z,6.44
2023-03-28T17:39:34.346Z,6.38
2023-03-28T17:42:01.324Z,6.38
2023-03-28T17:44:28.017Z,6.38
2023-03-28T17:46:56.667Z,6.63
2023-03-28T17:49:23.429Z,6.56
2023-03-28T17:51:50.288Z,6.56
2023-03-28T17:54:17.264Z,6.50
2023-03-28T17:56:44.536Z,6.50
2023-03-28T17:59:11.856Z,6.50
2023-03-28T18:01:38.604Z,6.50
2023-03-28T18:04:05.501Z,6.50
2023-03-28T18:06:33.286Z,6.50
2023-03-28T18:08:59.863Z,6.50
2023-03-28T18:11:27.068Z,6.50
2023-03-28T18:13:57.038Z,6.44
2023-03-28T18:16:23.862Z,6.44
2023-03-28T18:18:50.625Z,6.38
2023-03-28T18:21:17.326Z,6.31
2023-03-28T18:23:44.009Z,6.38
2023-03-28T18:26:10.605Z,6.38
2023-03-28T18:28:37.487Z,6.38
2023-03-28T18:31:10.385Z,6.38
2023-03-28T18:33:37.509Z,6.31
2023-03-28T18:36:04.923Z,6.25
2023-03-28T18:38:39.759Z,6.25
2023-03-28T18:41:08.274Z,6.19
2023-03-28T18:43:37.295Z,6.25
2023-03-28T18:46:07.685Z,6.25
2023-03-28T18:48:35.155Z,6.31
2023-03-28T18:51:03.266Z,6.38
2023-03-28T18:53:30.270Z,6.44
2023-03-28T18:55:56.886Z,6.50
2023-03-28T18:58:23.921Z,6.56
2023-03-28T19:00:59.227Z,6.63
2023-03-28T19:03:31.308Z,6.63
2023-03-28T19:06:00.971Z,6.63
2023-03-28T19:08:30.997Z,6.69
2023-03-28T19:11:00.723Z,6.63
2023-03-28T19:13:29.038Z,6.69
2023-03-28T19:16:07.804Z,6.75
2023-03-28T19:18:38.543Z,6.69
2023-03-28T19:21:06.084Z,6.69
2023-03-28T19:23:33.341Z,6.69
2023-03-28T19:26:00.695Z,6.63
2023-03-28T19:28:27.484Z,6.63
2023-03-28T19:31:14.000Z,6.56
2023-03-28T19:33:41.163Z,6.56
2023-03-28T19:36:08.794Z,6.50
2023-03-28T19:38:37.147Z,6.44
2023-03-28T19:41:10.397Z,6.44
2023-03-28T19:43:37.828Z,6.31
2023-03-28T19:46:06.782Z,6.25
2023-03-28T19:48:35.047Z,6.13
2023-03-28T19:51:02.184Z,6.00
2023-03-28T19:53:29.220Z,5.94
2023-03-28T19:55:58.874Z,5.88
2023-03-28T19:58:26.153Z,5.88
2023-03-28T20:00:53.099Z,5.81
2023-03-28T20:03:19.681Z,5.75
2023-03-28T20:05:48.069Z,5.69
2023-03-28T20:08:16.118Z,5.69
2023-03-28T20:10:44.892Z,5.63
2023-03-28T20:13:11.550Z,5.69
2023-03-28T20:15:41.179Z,5.63
2023-03-28T20:18:10.166Z,5.69
2023-03-28T20:20:43.040Z,5.69
2023-03-28T20:23:11.755Z,5.69
2023-03-28T20:25:38.425Z,5.69
2023-03-28T20:28:05.162Z,5.69
2023-03-28T20:30:32.279Z,5.75
2023-03-28T20:32:59.372Z,5.81
2023-03-28T20:35:27.364Z,5.81
2023-03-28T20:37:54.574Z,5.81
2023-03-28T20:40:22.997Z,5.81
2023-03-28T20:42:56.974Z,5.81
2023-03-28T20:45:23.691Z,5.75
2023-03-28T20:47:56.242Z,5.75
2023-03-28T20:50:25.826Z,5.69
2023-03-28T20:52:53.226Z,5.75
2023-03-28T20:55:19.960Z,5.75
2023-03-28T20:57:47.990Z,5.63
2023-03-28T21:00:17.384Z,5.63
2023-03-28T21:02:46.090Z,5.63
2023-03-28T21:05:14.321Z,5.69
2023-03-28T21:07:41.137Z,5.69
2023-03-28T21:10:09.360Z,5.69
2023-03-28T21:12:35.988Z,5.63
2023-03-28T21:15:02.822Z,5.63
2023-03-28T21:17:29.611Z,5.56
2023-03-28T21:19:58.281Z,5.56
2023-03-28T21:22:25.649Z,5.56
2023-03-28T21:24:52.311Z,5.50
2023-03-28T21:27:18.949Z,5.50
2023-03-28T21:29:45.621Z,5.50
2023-03-28T21:32:13.482Z,5.50
2023-03-28T21:34:43.118Z,5.44
2023-03-28T21:37:09.703Z,5.44
2023-03-28T21:39:36.283Z,5.44
2023-03-28T21:42:03.680Z,5.44
2023-03-28T21:44:30.773Z,5.44
2023-03-28T21:46:57.972Z,5.44
2023-03-28T21:49:25.203Z,5.38
2023-03-28T21:51:52.675Z,5.38
2023-03-28T21:54:19.274Z,5.38
2023-03-28T21:56:46.117Z,5.38
2023-03-28T21:59:12.743Z,5.38
2023-03-28T22:01:39.426Z,5.38
2023-03-28T22:04:06.029Z,5.38
2023-03-28T22:06:32.679Z,5.31
2023-03-28T22:08:59.597Z,5.31
2023-03-28T22:11:27.846Z,5.31
2023-03-28T22:14:04.789Z,5.38
2023-03-28T22:16:34.596Z,5.38
2023-03-28T22:19:02.736Z,5.38
2023-03-28T22:21:30.231Z,5.38
2023-03-28T22:24:02.601Z,5.38
2023-03-28T22:26:30.516Z,5.38
2023-03-28T22:28:58.499Z,5.31
2023-03-28T22:31:26.401Z,5.38
2023-03-28T22:33:54.184Z,5.31
2023-03-28T22:36:21.849Z,5.31
2023-03-28T22:38:48.736Z,5.31
2023-03-28T22:41:15.856Z,5.25
2023-03-28T22:43:42.792Z,5.25
2023-03-28T22:46:12.561Z,5.25
2023-03-28T22:48:39.431Z,5.25
2023-03-28T22:51:11.671Z,5.25
2023-03-28T22:53:40.116Z,5.25
2023-03-28T22:56:07.490Z,5.25
2023-03-28T22:58:34.327Z,5.25
2023-03-28T23:01:01.167Z,5.31
2023-03-28T23:03:28.218Z,5.25
2023-03-28T23:05:55.305Z,5.31
2023-03-28T23:08:22.245Z,5.25
2023-03-28T23:10:49.093Z,5.25
2023-03-28T23:13:16.261Z,5.31
2023-03-28T23:15:43.712Z,5.31
2023-03-28T23:18:10.952Z,5.31
2023-03-28T23:20:38.260Z,5.31
2023-03-28T23:23:05.032Z,5.31
2023-03-28T23:25:32.856Z,5.25
2023-03-28T23:27:59.421Z,5.25
2023-03-28T23:30:26.227Z,5.25
2023-03-28T23:32:53.020Z,5.31
2023-03-28T23:35:19.698Z,5.31
2023-03-28T23:37:46.635Z,5.31
2023-03-28T23:40:16.417Z,5.31
2023-03-28T23:42:44.488Z,5.38
2023-03-28T23:45:13.769Z,5.31
2023-03-28T23:47:40.694Z,5.38
2023-03-28T23:50:09.349Z,5.31
2023-03-28T23:52:36.575Z,5.31
2023-03-28T23:55:03.751Z,5.38
2023-03-28T23:57:30.366Z,5.31
2023-03-28T23:59:57.224Z,5.38
